Time;durP1;ratioP1;P1;durP2;ratioP2;P2;SDS_P1;SDS_P2;PMS_P1;PMS_P2;Temp;Humidity;BMP_temperature;BMP_pressure;BME280_temperature;BME280_humidity;BME280_pressure;Samples;Min_cycle;Max_cycle;Signal;HPM_P1;HPM_P2
2022/06/27 00:02:09;;;;;;;1.73;1.63;;;17.40;25.40;;;;;;5076691;28;34447;-76
2022/06/27 00:04:35;;;;;;;2.03;1.73;;;17.40;25.40;;;;;;5045429;28;35951;-76
2022/06/27 00:07:01;;;;;;;2.22;1.90;;;17.40;25.30;;;;;;5071579;28;34271;-76
2022/06/27 00:09:27;;;;;;;2.00;1.73;;;17.40;25.30;;;;;;5072565;28;34153;-77
2022/06/27 00:11:53;;;;;;;2.75;1.45;;;17.40;25.30;;;;;;5069263;28;34193;-76
2022/06/27 00:14:19;;;;;;;2.13;1.70;;;17.40;25.30;;;;;;5068589;28;36499;-77
2022/06/27 00:16:45;;;;;;;1.85;1.75;;;17.40;25.40;;;;;;5080717;28;34089;-77
2022/06/27 00:19:10;;;;;;;2.53;1.67;;;17.40;25.40;;;;;;5052248;28;34224;-77
2022/06/27 00:21:36;;;;;;;2.13;1.80;;;17.40;25.40;;;;;;5075207;28;34496;-77
2022/06/27 00:24:02;;;;;;;3.42;1.70;;;17.40;25.50;;;;;;5093309;28;35558;-77
2022/06/27 00:26:28;;;;;;;3.05;1.90;;;17.30;25.50;;;;;;5082059;28;34239;-76
2022/06/27 00:28:54;;;;;;;2.55;2.00;;;17.30;25.50;;;;;;5048302;28;34040;-76
2022/06/27 00:31:20;;;;;;;2.17;1.98;;;17.30;25.50;;;;;;5054564;28;34575;-76
2022/06/27 00:33:46;;;;;;;1.92;1.63;;;17.30;25.50;;;;;;5068808;28;35197;-76
2022/06/27 00:36:12;;;;;;;2.60;1.98;;;17.20;25.50;;;;;;5058788;28;34183;-77
2022/06/27 00:38:38;;;;;;;1.60;1.50;;;17.20;25.50;;;;;;5074860;28;34339;-77
2022/06/27 00:41:04;;;;;;;2.80;2.15;;;17.20;25.50;;;;;;5066804;28;34396;-77
2022/06/27 00:43:30;;;;;;;1.77;1.67;;;17.10;25.60;;;;;;5090342;28;35982;-76
2022/06/27 00:45:56;;;;;;;3.55;1.95;;;17.10;25.60;;;;;;5066160;28;34011;-77
2022/06/27 00:48:22;;;;;;;2.78;2.05;;;17.10;25.60;;;;;;5084943;28;33980;-77
2022/06/27 00:50:48;;;;;;;2.53;1.83;;;17.10;25.70;;;;;;5070710;28;34278;-76
2022/06/27 00:53:14;;;;;;;1.92;1.80;;;17.10;25.70;;;;;;5076474;28;34426;-77
2022/06/27 00:55:40;;;;;;;2.20;2.00;;;17.10;25.80;;;;;;5064326;28;34099;-77
2022/06/27 00:58:06;;;;;;;2.53;2.10;;;17.10;25.90;;;;;;5070553;28;34104;-76
2022/06/27 01:00:32;;;;;;;2.40;1.70;;;17.10;25.90;;;;;;5080643;28;34285;-77
2022/06/27 01:02:58;;;;;;;3.95;1.92;;;17.10;25.90;;;;;;5061720;28;36034;-76
2022/06/27 01:05:24;;;;;;;2.03;1.92;;;17.10;25.90;;;;;;5062754;28;34157;-76
2022/06/27 01:07:50;;;;;;;3.83;2.05;;;17.10;25.90;;;;;;5068185;28;34228;-77
2022/06/27 01:10:16;;;;;;;6.28;2.20;;;17.10;25.90;;;;;;5064020;28;34337;-77
2022/06/27 01:12:42;;;;;;;2.53;2.10;;;17.10;25.90;;;;;;5064818;28;35134;-77
2022/06/27 01:15:10;;;;;;;2.78;2.00;;;17.10;25.90;;;;;;5074403;28;34459;-76
2022/06/27 01:17:37;;;;;;;2.17;1.92;;;17.10;25.90;;;;;;5078674;28;34319;-76
2022/06/27 01:20:04;;;;;;;2.00;1.90;;;17.10;26.10;;;;;;5081595;28;34245;-77
2022/06/27 01:22:30;;;;;;;2.13;1.90;;;17.10;26.00;;;;;;5078251;28;35015;-76
2022/06/27 01:24:56;;;;;;;3.65;1.70;;;17.00;25.90;;;;;;5057046;28;34241;-76
2022/06/27 01:27:22;;;;;;;4.40;2.05;;;17.10;26.00;;;;;;5078287;28;34341;-77
2022/06/27 01:29:48;;;;;;;5.68;2.00;;;17.00;25.90;;;;;;5065720;28;34116;-76
2022/06/27 01:32:14;;;;;;;3.33;2.20;;;17.00;26.00;;;;;;5068340;28;35110;-77
2022/06/27 01:34:40;;;;;;;2.40;2.05;;;17.10;26.10;;;;;;5070896;28;34249;-76
2022/06/27 01:37:06;;;;;;;2.25;2.05;;;17.10;26.10;;;;;;5080238;28;34317;-77
2022/06/27 01:39:33;;;;;;;3.38;2.13;;;17.10;26.10;;;;;;5076424;28;34159;-77
2022/06/27 01:42:02;;;;;;;3.97;2.30;;;17.10;26.10;;;;;;5075081;28;34454;-77
2022/06/27 01:44:30;;;;;;;4.50;2.40;;;17.10;26.30;;;;;;5075821;28;34310;-77
2022/06/27 01:47:05;;;;;;;7.38;2.58;;;17.10;26.30;;;;;;5076918;28;34372;-77
2022/06/27 01:49:32;;;;;;;2.75;2.20;;;17.00;26.80;;;;;;5048722;28;34111;-77
2022/06/27 01:52:01;;;;;;;4.95;2.22;;;17.10;26.50;;;;;;5062184;28;36081;-77
2022/06/27 01:54:27;;;;;;;3.92;2.13;;;17.00;26.60;;;;;;5060508;28;34311;-77
2022/06/27 01:56:53;;;;;;;2.80;2.45;;;17.10;26.70;;;;;;5049748;28;34187;-77
2022/06/27 01:59:24;;;;;;;2.75;2.55;;;17.10;26.60;;;;;;5084768;28;34119;-77
2022/06/27 02:01:51;;;;;;;2.90;2.33;;;17.10;26.80;;;;;;5056952;28;36482;-77
2022/06/27 02:04:17;;;;;;;3.17;2.40;;;17.10;26.60;;;;;;5065515;28;34229;-77
2022/06/27 02:06:45;;;;;;;4.20;2.50;;;17.10;26.60;;;;;;5080052;28;34072;-77
2022/06/27 02:09:12;;;;;;;6.93;2.40;;;17.10;26.60;;;;;;5066830;28;34341;-77
2022/06/27 02:11:40;;;;;;;4.07;2.90;;;17.10;26.60;;;;;;5094644;28;35912;-76
2022/06/27 02:14:06;;;;;;;3.50;2.53;;;17.10;26.60;;;;;;5057775;28;34731;-77
2022/06/27 02:16:32;;;;;;;3.10;2.50;;;17.10;26.70;;;;;;5064560;28;34342;-77
2022/06/27 02:18:59;;;;;;;3.25;2.63;;;17.10;26.70;;;;;;5073345;28;34267;-76
2022/06/27 02:21:27;;;;;;;4.10;2.10;;;17.10;26.60;;;;;;5080418;28;36127;-77
2022/06/27 02:23:55;;;;;;;2.88;2.35;;;17.10;26.70;;;;;;5073562;28;34105;-76
2022/06/27 02:26:24;;;;;;;3.67;2.30;;;17.10;26.60;;;;;;5078045;28;34083;-77
2022/06/27 02:28:53;;;;;;;2.70;2.50;;;17.00;26.50;;;;;;5054872;28;34124;-77
2022/06/27 02:31:19;;;;;;;5.05;2.33;;;17.00;26.40;;;;;;5062798;28;35877;-77
2022/06/27 02:33:47;;;;;;;2.35;1.95;;;16.90;26.40;;;;;;5054510;28;34138;-77
2022/06/27 02:36:17;;;;;;;3.08;2.08;;;16.90;26.40;;;;;;5051502;28;34017;-77
2022/06/27 02:38:44;;;;;;;5.18;2.45;;;16.90;26.60;;;;;;5079023;28;34155;-77
2022/06/27 02:41:14;;;;;;;2.20;2.10;;;16.90;26.60;;;;;;5073249;28;36557;-77
2022/06/27 02:43:44;;;;;;;3.03;2.40;;;16.80;27.30;;;;;;5092562;28;34218;-77
2022/06/27 02:46:10;;;;;;;2.58;2.25;;;16.80;26.60;;;;;;5062486;28;34198;-77
2022/06/27 02:48:39;;;;;;;2.97;2.55;;;16.80;26.60;;;;;;5076993;28;35029;-77
2022/06/27 02:51:10;;;;;;;2.38;2.17;;;16.80;26.60;;;;;;5053098;28;35677;-76
2022/06/27 02:53:45;;;;;;;2.53;2.33;;;16.80;26.60;;;;;;5065221;28;34209;-76
2022/06/27 02:56:14;;;;;;;6.65;2.85;;;16.80;26.80;;;;;;5056130;28;34603;-77
2022/06/27 02:59:03;;;;;;;4.10;2.60;;;16.80;26.60;;;;;;5088356;28;34644;-77
2022/06/27 03:01:31;;;;;;;4.30;2.53;;;16.90;28.00;;;;;;5054461;28;35870;-77
2022/06/27 03:03:59;;;;;;;3.28;2.35;;;16.90;26.70;;;;;;5068037;28;34071;-77
2022/06/27 03:06:25;;;;;;;2.45;2.25;;;16.90;26.70;;;;;;5049610;28;34003;-76
2022/06/27 03:08:51;;;;;;;3.88;2.65;;;16.90;26.70;;;;;;5059328;28;34116;-76
2022/06/27 03:11:20;;;;;;;2.80;2.42;;;16.90;26.70;;;;;;5075741;28;35794;-77
2022/06/27 03:13:47;;;;;;;4.95;2.40;;;16.90;26.70;;;;;;5058585;28;34336;-77
2022/06/27 03:16:15;;;;;;;3.55;2.13;;;16.80;26.60;;;;;;5065669;28;34238;-77
2022/06/27 03:18:42;;;;;;;3.13;2.40;;;16.80;26.60;;;;;;5073052;28;34591;-76
2022/06/27 03:21:08;;;;;;;3.75;2.30;;;16.80;26.70;;;;;;5077556;28;35545;-77
2022/06/27 03:23:34;;;;;;;4.80;2.50;;;16.80;26.70;;;;;;5076167;28;34205;-76
2022/06/27 03:26:00;;;;;;;4.47;2.97;;;16.80;27.40;;;;;;5071176;28;34102;-76
2022/06/27 03:28:26;;;;;;;3.47;3.10;;;16.80;26.90;;;;;;5083565;28;34008;-77
2022/06/27 03:30:52;;;;;;;2.65;2.45;;;16.80;26.90;;;;;;5080211;28;36032;-77
2022/06/27 03:33:18;;;;;;;2.40;2.20;;;16.80;27.00;;;;;;5073753;28;34094;-77
2022/06/27 03:35:44;;;;;;;4.57;2.65;;;16.80;27.00;;;;;;5072782;28;34314;-76
2022/06/27 03:38:12;;;;;;;5.00;2.60;;;16.80;27.10;;;;;;5072800;28;34443;-76
2022/06/27 03:40:38;;;;;;;2.92;2.53;;;16.90;27.80;;;;;;5069441;28;34381;-77
2022/06/27 03:43:04;;;;;;;3.55;2.65;;;16.80;27.10;;;;;;5068161;28;34170;-76
2022/06/27 03:45:30;;;;;;;4.47;2.83;;;16.80;27.00;;;;;;5065720;28;34134;-76
2022/06/27 03:47:59;;;;;;;2.92;2.72;;;16.80;27.00;;;;;;5065952;28;34056;-77
2022/06/27 03:50:25;;;;;;;5.05;2.90;;;16.80;27.00;;;;;;5080272;28;34446;-77
2022/06/27 03:52:53;;;;;;;4.35;2.83;;;16.90;27.10;;;;;;5066413;28;34212;-77
2022/06/27 03:55:19;;;;;;;4.38;2.72;;;16.90;27.20;;;;;;5062621;28;34373;-77
2022/06/27 03:57:48;;;;;;;3.35;2.92;;;16.90;27.20;;;;;;5071934;28;34121;-77
2022/06/27 04:00:16;;;;;;;3.30;3.00;;;16.90;27.10;;;;;;5070243;28;35612;-77
2022/06/27 04:02:42;;;;;;;3.22;2.92;;;16.90;27.10;;;;;;5057771;28;34383;-77
2022/06/27 04:05:08;;;;;;;4.22;2.65;;;16.90;27.10;;;;;;5082980;28;34167;-77
2022/06/27 04:07:35;;;;;;;3.40;2.75;;;16.90;27.10;;;;;;5068045;28;34272;-77
2022/06/27 04:10:02;;;;;;;4.63;3.13;;;16.90;27.10;;;;;;5057143;28;36168;-77
2022/06/27 04:12:27;;;;;;;6.00;2.80;;;16.90;27.10;;;;;;5069595;28;34105;-77
2022/06/27 04:14:53;;;;;;;3.25;2.80;;;17.00;27.10;;;;;;5064388;28;34081;-77
2022/06/27 04:17:19;;;;;;;3.83;2.97;;;17.00;27.20;;;;;;5068056;28;34635;-77
2022/06/27 04:19:45;;;;;;;3.78;3.28;;;17.00;27.10;;;;;;5078878;28;34219;-77
2022/06/27 04:22:11;;;;;;;3.90;3.10;;;17.00;27.10;;;;;;5062165;28;34277;-77
2022/06/27 04:24:37;;;;;;;4.00;2.95;;;17.10;27.20;;;;;;5078161;28;34264;-77
2022/06/27 04:27:04;;;;;;;5.20;3.38;;;17.10;27.20;;;;;;5062501;28;34149;-77
2022/06/27 04:29:31;;;;;;;6.90;3.35;;;17.10;27.20;;;;;;5063105;28;34169;-77
2022/06/27 04:31:58;;;;;;;3.35;3.05;;;17.10;27.20;;;;;;5068233;28;34333;-77
2022/06/27 04:34:24;;;;;;;3.88;2.80;;;17.10;27.20;;;;;;5073747;28;34064;-77
2022/06/27 04:36:51;;;;;;;3.85;3.22;;;17.10;27.20;;;;;;5077002;28;34812;-77
2022/06/27 04:39:19;;;;;;;3.85;2.90;;;17.10;27.30;;;;;;5065341;28;34068;-77
2022/06/27 04:41:46;;;;;;;4.32;3.10;;;17.10;27.30;;;;;;5070268;28;34242;-77
2022/06/27 04:44:12;;;;;;;4.68;3.28;;;17.20;27.20;;;;;;5082447;28;34329;-77
2022/06/27 04:46:40;;;;;;;4.55;3.30;;;17.20;27.20;;;;;;5071774;28;34543;-77
2022/06/27 04:49:06;;;;;;;4.90;3.28;;;17.20;27.30;;;;;;5066796;28;34432;-77
2022/06/27 04:51:32;;;;;;;3.85;3.45;;;17.10;27.30;;;;;;5073021;28;34138;-77
2022/06/27 04:53:58;;;;;;;6.40;3.22;;;17.10;27.40;;;;;;5088861;28;34208;-77
2022/06/27 04:56:25;;;;;;;5.97;3.05;;;17.20;27.50;;;;;;5069477;28;34219;-77
2022/06/27 04:58:52;;;;;;;3.60;3.28;;;17.20;27.60;;;;;;5085742;28;35781;-76
2022/06/27 05:01:18;;;;;;;4.55;3.45;;;17.20;27.60;;;;;;5071786;28;34210;-77
2022/06/27 05:03:44;;;;;;;6.47;3.00;;;17.20;27.60;;;;;;5076654;28;34242;-77
2022/06/27 05:06:10;;;;;;;5.43;3.10;;;17.30;27.60;;;;;;5080306;28;34022;-77
2022/06/27 05:08:37;;;;;;;3.72;3.10;;;17.30;27.60;;;;;;5065717;28;36824;-78
2022/06/27 05:11:04;;;;;;;4.55;3.42;;;17.30;27.60;;;;;;5066925;28;34235;-76
2022/06/27 05:13:31;;;;;;;6.63;3.47;;;17.30;27.60;;;;;;5068837;28;34467;-77
2022/06/27 05:15:58;;;;;;;5.10;3.35;;;17.30;27.70;;;;;;5078656;28;34364;-77
2022/06/27 05:18:24;;;;;;;5.65;3.35;;;17.40;27.70;;;;;;5067215;28;34167;-77
2022/06/27 05:20:50;;;;;;;4.00;3.60;;;17.40;28.30;;;;;;5076498;28;34249;-77
2022/06/27 05:23:37;;;;;;;4.13;3.70;;;17.40;27.70;;;;;;5075657;28;34418;-77
2022/06/27 05:26:05;;;;;;;3.78;3.10;;;17.40;29.90;;;;;;5082160;28;34277;-78
2022/06/27 05:28:49;;;;;;;4.57;3.20;;;17.40;27.80;;;;;;5069678;28;34241;-79
2022/06/27 05:31:15;;;;;;;3.92;3.63;;;17.40;27.90;;;;;;5075434;27;34309;-77
2022/06/27 05:33:42;;;;;;;3.80;3.38;;;17.40;28.20;;;;;;5075052;28;34350;-78
2022/06/27 05:36:10;;;;;;;4.40;3.70;;;17.40;28.10;;;;;;5076594;28;34220;-77
2022/06/27 05:38:38;;;;;;;5.38;3.47;;;17.50;28.00;;;;;;5069831;28;35523;-78
2022/06/27 05:41:04;;;;;;;5.30;3.60;;;17.50;28.00;;;;;;5079772;28;34080;-78
2022/06/27 05:43:30;;;;;;;3.53;3.22;;;17.60;27.80;;;;;;5087860;28;34154;-77
2022/06/27 05:45:56;;;;;;;6.65;3.85;;;17.60;27.70;;;;;;5080270;28;34651;-78
2022/06/27 05:48:22;;;;;;;3.63;3.13;;;17.70;27.70;;;;;;5088370;28;36858;-78
2022/06/27 05:50:48;;;;;;;3.78;3.40;;;17.70;27.50;;;;;;5077012;28;34151;-78
2022/06/27 05:53:15;;;;;;;4.18;3.40;;;17.80;27.40;;;;;;5066100;28;34140;-78
2022/06/27 05:55:41;;;;;;;3.58;3.28;;;17.90;27.40;;;;;;5069475;28;34085;-77
2022/06/27 05:58:08;;;;;;;4.07;3.17;;;17.90;27.30;;;;;;5070000;28;35492;-77
2022/06/27 06:00:36;;;;;;;5.10;3.63;;;17.90;27.30;;;;;;5067844;28;34182;-77
2022/06/27 06:03:03;;;;;;;5.30;3.20;;;17.90;27.20;;;;;;5071425;28;34269;-77
2022/06/27 06:05:31;;;;;;;4.15;3.20;;;17.90;27.10;;;;;;5072084;28;34521;-77
2022/06/27 06:08:02;;;;;;;5.28;3.33;;;18.00;27.10;;;;;;5074568;28;34195;-78
2022/06/27 06:10:29;;;;;;;4.03;3.00;;;18.00;27.30;;;;;;5072888;28;34310;-77
2022/06/27 06:12:55;;;;;;;5.28;3.17;;;18.00;27.10;;;;;;5084687;28;34091;-77
2022/06/27 06:15:21;;;;;;;4.85;3.47;;;18.00;27.00;;;;;;5067262;28;34175;-77
2022/06/27 06:17:47;;;;;;;4.55;3.30;;;18.10;27.10;;;;;;5067340;28;35787;-77
2022/06/27 06:20:14;;;;;;;4.10;3.70;;;18.20;27.20;;;;;;5068027;28;34233;-77
2022/06/27 06:22:41;;;;;;;4.20;3.70;;;18.20;27.10;;;;;;5067817;28;34168;-77
2022/06/27 06:25:07;;;;;;;4.07;3.17;;;18.30;27.20;;;;;;5084082;28;34410;-77
2022/06/27 06:27:35;;;;;;;5.82;3.58;;;18.40;27.20;;;;;;5067659;28;36412;-78
2022/06/27 06:30:02;;;;;;;3.85;3.55;;;18.50;27.10;;;;;;5084329;28;34199;-77
2022/06/27 06:32:29;;;;;;;3.88;3.22;;;18.50;26.90;;;;;;5083935;28;34113;-77
2022/06/27 06:34:56;;;;;;;3.33;2.85;;;18.60;26.80;;;;;;5084475;28;34192;-77
2022/06/27 06:37:22;;;;;;;4.10;3.60;;;18.60;26.70;;;;;;5077559;28;36571;-77
2022/06/27 06:39:48;;;;;;;5.75;3.60;;;18.70;26.80;;;;;;5084311;28;34016;-77
2022/06/27 06:42:14;;;;;;;4.25;3.50;;;18.90;26.80;;;;;;5084286;28;34536;-77
2022/06/27 06:44:40;;;;;;;4.93;3.33;;;19.00;26.70;;;;;;5084437;28;34285;-77
2022/06/27 06:47:06;;;;;;;5.15;3.38;;;19.00;26.80;;;;;;5084597;28;34364;-77
2022/06/27 06:52:17;;;;;;;3.65;3.30;;;19.10;26.20;;;;;;5082262;28;34238;-77
2022/06/27 06:54:45;;;;;;;3.63;3.33;;;19.10;26.20;;;;;;5067676;28;34300;-77
2022/06/27 06:57:11;;;;;;;3.08;2.80;;;19.10;26.20;;;;;;5075333;28;35640;-76
2022/06/27 06:59:37;;;;;;;3.38;3.08;;;19.20;26.20;;;;;;5083836;28;34111;-77
2022/06/27 07:02:05;;;;;;;4.90;3.55;;;19.20;26.10;;;;;;5063600;28;34226;-77
2022/06/27 07:04:32;;;;;;;3.50;3.17;;;19.20;26.00;;;;;;5080668;28;33993;-77
2022/06/27 07:06:58;;;;;;;4.82;3.42;;;19.30;26.20;;;;;;5080429;28;35503;-77
2022/06/27 07:09:25;;;;;;;4.72;3.72;;;19.30;26.20;;;;;;5080684;28;34400;-77
2022/06/27 07:11:51;;;;;;;4.88;3.25;;;19.30;26.10;;;;;;5063939;28;34362;-77
2022/06/27 07:14:17;;;;;;;3.72;3.25;;;19.40;26.00;;;;;;5046414;28;34085;-77
2022/06/27 07:16:46;;;;;;;6.68;3.30;;;19.40;25.90;;;;;;5064709;28;34108;-77
2022/06/27 07:19:13;;;;;;;5.38;3.45;;;19.30;25.90;;;;;;5076138;28;34135;-77
2022/06/27 07:21:39;;;;;;;3.50;3.20;;;19.30;25.90;;;;;;5104168;28;34198;-77
2022/06/27 07:24:08;;;;;;;3.38;2.90;;;19.30;25.80;;;;;;5102636;27;34152;-76
2022/06/27 07:26:35;;;;;;;4.63;3.10;;;19.30;25.80;;;;;;5103663;27;36025;-76
2022/06/27 07:29:04;;;;;;;4.60;3.13;;;19.40;25.80;;;;;;5103599;28;34167;-76
2022/06/27 07:31:31;;;;;;;3.20;2.90;;;19.40;25.70;;;;;;5086013;28;34329;-76
2022/06/27 07:33:58;;;;;;;3.10;2.80;;;19.40;25.60;;;;;;5080152;28;34040;-76
2022/06/27 07:36:25;;;;;;;3.20;2.70;;;19.40;25.60;;;;;;5080868;28;35653;-77
2022/06/27 07:38:52;;;;;;;3.97;3.00;;;19.40;25.60;;;;;;5083883;28;34249;-76
2022/06/27 07:41:20;;;;;;;3.30;3.00;;;19.50;25.60;;;;;;5093174;28;34147;-77
2022/06/27 07:43:48;;;;;;;3.55;3.00;;;19.40;25.50;;;;;;5064431;28;34190;-76
2022/06/27 07:46:17;;;;;;;3.92;3.10;;;19.40;25.40;;;;;;5062528;28;36543;-76
2022/06/27 07:48:44;;;;;;;5.15;3.00;;;19.40;25.50;;;;;;5064305;28;34215;-76
2022/06/27 07:51:13;;;;;;;3.30;2.83;;;19.30;25.60;;;;;;5062727;28;34150;-76
2022/06/27 07:53:46;;;;;;;3.90;3.15;;;19.30;25.60;;;;;;5066720;28;34547;-76
2022/06/27 07:56:14;;;;;;;3.58;2.90;;;19.20;25.60;;;;;;5066500;28;36608;-76
2022/06/27 07:58:41;;;;;;;3.47;2.88;;;19.20;25.70;;;;;;5062437;28;34159;-76
2022/06/27 08:01:09;;;;;;;3.60;3.15;;;19.20;25.60;;;;;;5078200;28;34422;-76
2022/06/27 08:03:54;;;;;;;6.47;2.90;;;19.10;25.70;;;;;;5059721;28;34252;-76
2022/06/27 08:06:23;;;;;;;3.17;2.88;;;19.20;26.20;;;;;;5062512;28;36490;-77
2022/06/27 08:08:52;;;;;;;3.33;2.88;;;19.20;25.70;;;;;;5062749;28;34365;-76
2022/06/27 08:11:21;;;;;;;5.25;2.80;;;19.20;25.70;;;;;;5062816;28;34306;-76
2022/06/27 08:13:49;;;;;;;3.30;3.00;;;19.30;25.80;;;;;;5074914;28;34029;-77
2022/06/27 08:16:18;;;;;;;5.57;2.83;;;19.30;25.70;;;;;;5083496;28;35022;-77
2022/06/27 08:18:47;;;;;;;5.00;2.90;;;19.40;25.60;;;;;;5083067;28;34269;-77
2022/06/27 08:21:16;;;;;;;6.43;3.50;;;19.40;25.60;;;;;;5065709;28;34472;-77
2022/06/27 08:23:44;;;;;;;3.53;3.22;;;19.50;25.60;;;;;;5062567;28;34129;-77
2022/06/27 08:26:12;;;;;;;6.10;3.80;;;19.60;25.60;;;;;;5062072;28;36024;-76
2022/06/27 08:28:41;;;;;;;3.15;2.75;;;19.60;25.60;;;;;;5079669;28;34134;-77
2022/06/27 08:31:10;;;;;;;3.20;3.00;;;19.70;25.60;;;;;;5062184;28;34269;-77
2022/06/27 08:33:36;;;;;;;3.20;2.92;;;19.70;25.50;;;;;;5067975;28;34218;-77
2022/06/27 08:36:03;;;;;;;3.53;3.22;;;19.80;25.60;;;;;;5081581;28;35476;-77
2022/06/27 08:38:32;;;;;;;2.83;2.63;;;19.80;25.40;;;;;;5064040;28;34104;-77
2022/06/27 08:40:58;;;;;;;4.00;3.10;;;19.80;25.30;;;;;;5076238;28;34205;-77
2022/06/27 08:43:26;;;;;;;2.63;2.42;;;19.80;25.20;;;;;;5080024;28;34134;-78
2022/06/27 08:45:53;;;;;;;3.08;2.88;;;19.70;25.30;;;;;;5080672;28;35529;-77
2022/06/27 08:48:20;;;;;;;3.47;2.63;;;19.70;25.30;;;;;;5062915;28;34270;-78
2022/06/27 08:50:48;;;;;;;2.65;2.45;;;19.70;25.40;;;;;;5069373;28;34036;-77
2022/06/27 08:53:15;;;;;;;2.90;2.70;;;19.70;25.40;;;;;;5062294;28;34139;-77
2022/06/27 08:55:45;;;;;;;2.78;2.50;;;19.70;25.50;;;;;;5062075;28;35667;-77
2022/06/27 08:58:13;;;;;;;2.70;2.50;;;19.80;25.40;;;;;;5079928;28;34137;-77
2022/06/27 09:00:45;;;;;;;2.55;2.28;;;19.90;25.30;;;;;;5082917;28;34106;-77
2022/06/27 09:03:13;;;;;;;2.55;2.30;;;20.00;25.10;;;;;;5066305;28;34087;-76
2022/06/27 09:05:40;;;;;;;5.65;2.03;;;20.10;24.90;;;;;;5083845;28;34349;-81
2022/06/27 09:08:08;;;;;;;2.20;2.00;;;20.00;24.70;;;;;;5081675;28;34199;-77
2022/06/27 09:10:43;;;;;;;2.60;1.88;;;20.00;24.60;;;;;;5083157;28;34364;-77
2022/06/27 09:13:15;;;;;;;2.25;2.03;;;20.00;24.50;;;;;;5062893;28;34120;-77
2022/06/27 09:15:50;;;;;;;3.20;2.17;;;20.00;24.50;;;;;;5062192;28;35468;-77
2022/06/27 09:18:21;;;;;;;2.97;1.90;;;19.90;24.60;;;;;;5045647;28;34254;-77
2022/06/27 09:21:04;;;;;;;2.28;2.08;;;20.00;24.50;;;;;;5045435;28;34225;-77
2022/06/27 09:23:39;;;;;;;5.00;2.00;;;20.00;24.40;;;;;;5062041;28;34214;-77
2022/06/27 09:26:25;;;;;;;4.07;1.85;;;20.00;24.40;;;;;;5045125;28;35695;-76
2022/06/27 09:29:03;;;;;;;2.53;1.98;;;20.10;24.40;;;;;;5047689;28;34415;-77
2022/06/27 09:31:35;;;;;;;2.28;2.08;;;20.20;24.30;;;;;;5086980;28;34131;-76
2022/06/27 09:34:20;;;;;;;1.98;1.88;;;20.30;23.90;;;;;;5080557;28;34353;-77
2022/06/27 09:36:51;;;;;;;2.20;2.00;;;20.30;23.40;;;;;;5061561;28;35705;-76
2022/06/27 09:39:34;;;;;;;5.50;1.70;;;20.40;23.80;;;;;;5044459;28;34093;-77
2022/06/27 09:42:10;;;;;;;2.20;1.92;;;20.40;23.50;;;;;;5064582;28;34270;-77
2022/06/27 09:44:39;;;;;;;2.17;1.98;;;20.40;23.50;;;;;;5083235;28;34146;-76
2022/06/27 09:47:13;;;;;;;3.13;2.20;;;20.50;23.60;;;;;;5082631;28;34136;-77
2022/06/27 09:49:42;;;;;;;2.85;1.80;;;20.60;23.60;;;;;;5069336;28;34170;-77
2022/06/27 09:52:12;;;;;;;1.83;1.60;;;20.60;23.20;;;;;;5065184;28;34246;-77
2022/06/27 09:54:40;;;;;;;1.80;1.70;;;20.70;23.00;;;;;;5081940;28;34672;-76
2022/06/27 09:57:08;;;;;;;3.10;2.38;;;20.80;22.60;;;;;;5047947;28;36598;-76
2022/06/27 09:59:36;;;;;;;3.88;2.45;;;20.90;22.60;;;;;;5048305;28;34264;-76
2022/06/27 10:02:04;;;;;;;2.50;1.95;;;21.20;22.70;;;;;;5069133;28;34182;-76
2022/06/27 10:04:32;;;;;;;2.05;1.95;;;21.40;22.40;;;;;;5084862;28;34071;-76
2022/06/27 10:07:02;;;;;;;1.90;1.80;;;21.60;21.70;;;;;;5065685;28;36826;-75
2022/06/27 10:09:29;;;;;;;5.68;1.92;;;21.70;21.40;;;;;;5065597;28;34190;-77
2022/06/27 10:12:25;;;;;;;2.42;1.70;;;21.80;21.20;;;;;;5064809;28;34320;-76
2022/06/27 10:15:17;;;;;;;3.35;1.90;;;21.80;20.20;;;;;;5080502;28;34186;-76
2022/06/27 10:17:50;;;;;;;2.15;2.00;;;21.90;19.60;;;;;;5085852;28;36302;-77
2022/06/27 10:20:29;;;;;;;2.47;1.80;;;22.00;19.70;;;;;;5073150;28;34320;-80
2022/06/27 10:23:26;;;;;;;1.92;1.67;;;21.90;20.20;;;;;;5095786;28;34189;-77
2022/06/27 10:25:53;;;;;;;1.55;1.45;;;21.90;20.00;;;;;;5068423;28;34123;-76
2022/06/27 10:28:21;;;;;;;1.90;1.70;;;21.90;20.50;;;;;;5085590;28;35211;-76
2022/06/27 10:30:52;;;;;;;1.92;1.65;;;22.00;20.40;;;;;;5084629;28;34207;-76
2022/06/27 10:33:38;;;;;;;4.50;1.77;;;22.10;20.00;;;;;;5084865;28;34097;-77
2022/06/27 10:36:14;;;;;;;1.77;1.60;;;22.10;18.50;;;;;;5070959;28;34476;-77
2022/06/27 10:38:47;;;;;;;1.80;1.70;;;22.20;20.00;;;;;;5084636;28;35706;-77
2022/06/27 10:41:35;;;;;;;3.33;2.20;;;22.30;20.00;;;;;;5084695;28;34240;-77
2022/06/27 10:44:03;;;;;;;3.45;1.60;;;22.40;19.30;;;;;;5070927;28;34203;-76
2022/06/27 10:46:45;;;;;;;3.97;1.40;;;22.50;20.10;;;;;;5085350;28;34511;-77
2022/06/27 10:49:20;;;;;;;2.05;1.40;;;22.60;18.90;;;;;;5084065;28;35799;-77
2022/06/27 10:51:46;;;;;;;1.80;1.42;;;22.70;18.90;;;;;;5085464;28;34337;-76
2022/06/27 10:54:12;;;;;;;1.77;1.40;;;22.70;19.40;;;;;;5084976;28;34409;-77
2022/06/27 10:56:42;;;;;;;1.60;1.50;;;22.70;19.20;;;;;;5084379;28;34417;-77
2022/06/27 10:59:47;;;;;;;1.48;1.38;;;22.70;19.00;;;;;;5050680;28;36259;-77
2022/06/27 11:02:17;;;;;;;1.88;1.70;;;22.70;18.40;;;;;;5056385;28;34145;-77
2022/06/27 11:04:45;;;;;;;1.80;1.70;;;22.70;18.60;;;;;;5084360;28;34038;-76
2022/06/27 11:07:11;;;;;;;3.28;1.40;;;22.60;18.90;;;;;;5085348;28;34058;-76
2022/06/27 11:09:40;;;;;;;1.75;1.50;;;22.50;19.10;;;;;;5083256;28;35807;-76
2022/06/27 11:12:07;;;;;;;2.22;1.83;;;22.50;19.00;;;;;;5067556;28;34300;-76
2022/06/27 11:14:51;;;;;;;1.95;1.60;;;22.50;19.20;;;;;;5067774;28;34204;-76
2022/06/27 11:17:35;;;;;;;3.08;1.55;;;22.50;18.50;;;;;;5084260;28;34273;-78
2022/06/27 11:20:26;;;;;;;1.50;1.40;;;22.60;17.70;;;;;;5066677;28;35790;-76
2022/06/27 11:22:56;;;;;;;3.03;1.50;;;22.80;19.30;;;;;;5085977;28;34366;-77
2022/06/27 11:25:24;;;;;;;1.48;1.38;;;23.10;18.80;;;;;;5084863;28;34150;-76
2022/06/27 11:27:56;;;;;;;1.42;1.25;;;23.20;18.20;;;;;;5067816;28;34089;-78
2022/06/27 11:33:17;;;;;;;3.55;1.30;;;23.50;16.80;;;;;;5084885;28;34343;-77
2022/06/27 11:35:45;;;;;;;1.42;1.33;;;23.50;16.90;;;;;;5085149;28;34289;-78
2022/06/27 11:38:11;;;;;;;1.25;0.88;;;23.50;17.00;;;;;;5084036;28;34215;-76
2022/06/27 11:40:37;;;;;;;1.30;1.20;;;23.50;16.80;;;;;;5082424;28;36376;-76
2022/06/27 11:43:03;;;;;;;1.25;1.15;;;23.50;16.60;;;;;;5084569;28;34217;-76
2022/06/27 11:45:40;;;;;;;2.30;1.00;;;23.60;16.30;;;;;;5083907;28;34479;-77
2022/06/27 11:48:14;;;;;;;1.35;0.80;;;23.60;12.40;;;;;;5084936;28;34393;-76
2022/06/27 11:50:40;;;;;;;1.02;0.73;;;23.70;14.40;;;;;;5067665;28;36575;-76
2022/06/27 11:53:06;;;;;;;1.02;0.90;;;23.80;15.20;;;;;;5067778;28;34245;-78
2022/06/27 11:55:32;;;;;;;1.50;0.85;;;23.90;14.80;;;;;;5085306;28;34143;-76
2022/06/27 11:58:00;;;;;;;1.02;0.90;;;24.00;14.50;;;;;;5084195;28;34308;-77
2022/06/27 12:00:33;;;;;;;0.80;0.80;;;24.00;14.30;;;;;;5066732;28;35984;-77
2022/06/27 12:03:09;;;;;;;1.23;1.13;;;24.00;12.30;;;;;;5084061;28;34101;-77
2022/06/27 12:05:38;;;;;;;0.93;0.93;;;24.00;12.10;;;;;;5067255;28;34148;-76
2022/06/27 12:08:07;;;;;;;0.90;0.90;;;24.10;14.30;;;;;;5066901;28;35131;-77
2022/06/27 12:10:37;;;;;;;2.47;0.95;;;24.10;13.80;;;;;;5045421;28;35914;-76
2022/06/27 12:13:05;;;;;;;1.13;0.90;;;24.00;13.60;;;;;;5076897;28;34142;-77
2022/06/27 12:15:31;;;;;;;1.15;0.90;;;23.80;14.00;;;;;;5084121;28;34135;-76
2022/06/27 12:17:59;;;;;;;1.65;1.10;;;23.60;14.00;;;;;;5085981;28;34036;-78
2022/06/27 12:20:27;;;;;;;2.85;1.02;;;23.50;14.30;;;;;;5066846;28;35763;-77
2022/06/27 12:22:53;;;;;;;2.47;1.20;;;23.30;14.50;;;;;;5084057;28;34494;-78
2022/06/27 12:25:20;;;;;;;1.52;1.20;;;23.00;14.50;;;;;;5085793;28;33780;-78
2022/06/27 12:27:46;;;;;;;2.15;1.30;;;22.80;15.00;;;;;;5067588;28;34102;-77
2022/06/27 12:30:14;;;;;;;1.25;1.15;;;22.70;15.30;;;;;;5083521;28;35508;-77
2022/06/27 12:32:41;;;;;;;1.88;1.48;;;22.60;15.40;;;;;;5071341;28;34036;-78
2022/06/27 12:35:07;;;;;;;3.00;1.45;;;22.60;15.40;;;;;;5083174;28;34065;-77
2022/06/27 12:37:35;;;;;;;1.23;1.13;;;22.70;15.50;;;;;;5085451;28;33712;-76
2022/06/27 12:40:02;;;;;;;1.33;1.17;;;22.80;15.00;;;;;;5067009;28;35521;-77
2022/06/27 12:42:28;;;;;;;1.30;1.20;;;22.90;15.40;;;;;;5082715;28;34083;-77
2022/06/27 12:44:54;;;;;;;1.83;1.55;;;23.10;15.00;;;;;;5085167;28;34117;-77
2022/06/27 12:47:20;;;;;;;1.77;1.50;;;23.40;14.90;;;;;;5086257;28;34058;-79
2022/06/27 12:49:46;;;;;;;1.48;1.38;;;23.60;14.50;;;;;;5084716;28;35579;-77
2022/06/27 12:52:12;;;;;;;2.40;1.77;;;23.70;14.30;;;;;;5084788;28;34561;-78
2022/06/27 12:54:39;;;;;;;1.95;1.55;;;23.70;14.20;;;;;;5086765;28;34111;-78
2022/06/27 12:57:06;;;;;;;9.93;1.63;;;23.70;14.00;;;;;;5086308;28;34128;-77
2022/06/27 12:59:33;;;;;;;2.00;1.40;;;23.70;14.00;;;;;;5084332;28;34354;-77
2022/06/27 13:01:59;;;;;;;1.52;1.30;;;23.60;14.00;;;;;;5085663;28;34107;-80